Terminal Aerodrome Forecast
Issued by NWS

Home | Current Version | Previous Version | Text Only | Print | Product List | Glossary On
Versions: 1 2 3 4 5 6 7 8 9 10 11 12 13 14 15 16 17 18 19 20 21 22 23 24 25 26 27 28 29
000
FTUS46 KLOX 251741
TAFOXR
TAF
KOXR 251741Z 2518/2618 VRB05KT P6SM SKC
     FM251900 23008KT P6SM SKC
     FM252100 26010KT P6SM SCT010
     FM260400 27006KT 4SM BR BKN005
     FM260600 VRB05KT 2SM BR OVC003
     FM261100 VRB03KT 5SM BR OVC006
     FM261500 VRB03KT P6SM BKN010=

USA.gov is the U.S. government's official web portal to all federal, state and local government web resources and services.